sensor_id;sensor_type;location;lat;lon;timestamp;P1;durP1;ratioP1;P2;durP2;ratioP2
39020;SDS011;25188;51.958;5.842;2023-05-10T00:00:23;41.47;;;25.75;;
39020;SDS011;25188;51.958;5.842;2023-05-10T00:02:49;47.00;;;28.83;;
39020;SDS011;25188;51.958;5.842;2023-05-10T00:05:15;42.70;;;27.60;;
39020;SDS011;25188;51.958;5.842;2023-05-10T00:07:40;39.33;;;25.50;;
39020;SDS011;25188;51.958;5.842;2023-05-10T00:10:09;44.58;;;27.13;;
39020;SDS011;25188;51.958;5.842;2023-05-10T00:12:35;45.38;;;27.90;;
39020;SDS011;25188;51.958;5.842;2023-05-10T00:15:01;46.70;;;28.10;;
39020;SDS011;25188;51.958;5.842;2023-05-10T00:17:28;47.53;;;29.55;;
39020;SDS011;25188;51.958;5.842;2023-05-10T00:19:53;44.42;;;28.20;;
39020;SDS011;25188;51.958;5.842;2023-05-10T00:22:19;48.55;;;29.45;;
39020;SDS011;25188;51.958;5.842;2023-05-10T00:24:45;49.97;;;31.90;;
39020;SDS011;25188;51.958;5.842;2023-05-10T00:27:11;48.95;;;30.13;;
39020;SDS011;25188;51.958;5.842;2023-05-10T00:29:36;55.47;;;32.72;;
39020;SDS011;25188;51.958;5.842;2023-05-10T00:32:02;51.80;;;32.25;;
39020;SDS011;25188;51.958;5.842;2023-05-10T00:34:28;50.08;;;30.30;;
39020;SDS011;25188;51.958;5.842;2023-05-10T00:36:54;55.28;;;33.83;;
39020;SDS011;25188;51.958;5.842;2023-05-10T00:39:19;52.95;;;32.58;;
39020;SDS011;25188;51.958;5.842;2023-05-10T00:41:45;54.70;;;33.60;;
39020;SDS011;25188;51.958;5.842;2023-05-10T00:44:11;55.97;;;32.90;;
39020;SDS011;25188;51.958;5.842;2023-05-10T00:46:36;53.88;;;31.55;;
39020;SDS011;25188;51.958;5.842;2023-05-10T00:49:02;52.80;;;32.13;;
39020;SDS011;25188;51.958;5.842;2023-05-10T00:51:29;55.65;;;33.13;;
39020;SDS011;25188;51.958;5.842;2023-05-10T00:53:56;55.10;;;31.55;;
39020;SDS011;25188;51.958;5.842;2023-05-10T00:56:22;56.50;;;32.10;;
39020;SDS011;25188;51.958;5.842;2023-05-10T00:58:49;57.28;;;33.22;;
39020;SDS011;25188;51.958;5.842;2023-05-10T01:01:15;58.00;;;33.30;;
39020;SDS011;25188;51.958;5.842;2023-05-10T01:03:40;59.28;;;35.08;;
39020;SDS011;25188;51.958;5.842;2023-05-10T01:06:07;59.97;;;35.30;;
39020;SDS011;25188;51.958;5.842;2023-05-10T01:08:33;58.13;;;35.47;;
39020;SDS011;25188;51.958;5.842;2023-05-10T01:10:59;60.13;;;34.05;;
39020;SDS011;25188;51.958;5.842;2023-05-10T01:13:37;53.70;;;32.60;;
39020;SDS011;25188;51.958;5.842;2023-05-10T01:16:05;62.80;;;35.65;;
39020;SDS011;25188;51.958;5.842;2023-05-10T01:18:40;57.33;;;34.83;;
39020;SDS011;25188;51.958;5.842;2023-05-10T01:23:45;58.10;;;34.75;;
39020;SDS011;25188;51.958;5.842;2023-05-10T01:29:14;52.58;;;31.98;;
39020;SDS011;25188;51.958;5.842;2023-05-10T01:32:04;57.92;;;33.13;;
39020;SDS011;25188;51.958;5.842;2023-05-10T01:40:30;52.47;;;30.80;;
39020;SDS011;25188;51.958;5.842;2023-05-10T01:43:06;52.78;;;31.98;;
39020;SDS011;25188;51.958;5.842;2023-05-10T01:48:11;53.33;;;31.70;;
39020;SDS011;25188;51.958;5.842;2023-05-10T01:50:39;49.72;;;31.23;;
39020;SDS011;25188;51.958;5.842;2023-05-10T01:53:08;53.33;;;30.10;;
39020;SDS011;25188;51.958;5.842;2023-05-10T01:55:49;46.85;;;28.13;;
39020;SDS011;25188;51.958;5.842;2023-05-10T01:58:25;47.40;;;27.63;;
39020;SDS011;25188;51.958;5.842;2023-05-10T02:00:55;46.25;;;27.10;;
39020;SDS011;25188;51.958;5.842;2023-05-10T02:03:23;48.08;;;27.17;;
39020;SDS011;25188;51.958;5.842;2023-05-10T02:05:51;51.50;;;27.27;;
39020;SDS011;25188;51.958;5.842;2023-05-10T02:08:18;47.78;;;26.90;;
39020;SDS011;25188;51.958;5.842;2023-05-10T02:10:45;48.03;;;27.35;;
39020;SDS011;25188;51.958;5.842;2023-05-10T02:13:14;51.97;;;27.95;;
39020;SDS011;25188;51.958;5.842;2023-05-10T02:15:42;50.60;;;29.65;;
39020;SDS011;25188;51.958;5.842;2023-05-10T02:18:09;54.15;;;30.88;;
39020;SDS011;25188;51.958;5.842;2023-05-10T02:20:36;59.85;;;31.95;;
39020;SDS011;25188;51.958;5.842;2023-05-10T02:23:03;55.38;;;30.80;;
39020;SDS011;25188;51.958;5.842;2023-05-10T02:25:30;55.63;;;31.55;;
39020;SDS011;25188;51.958;5.842;2023-05-10T02:27:57;57.72;;;31.27;;
39020;SDS011;25188;51.958;5.842;2023-05-10T02:30:27;60.42;;;30.65;;
39020;SDS011;25188;51.958;5.842;2023-05-10T02:32:54;60.42;;;31.52;;
39020;SDS011;25188;51.958;5.842;2023-05-10T02:35:21;59.97;;;31.85;;
39020;SDS011;25188;51.958;5.842;2023-05-10T02:37:48;60.97;;;31.02;;
39020;SDS011;25188;51.958;5.842;2023-05-10T02:40:14;65.05;;;32.33;;
39020;SDS011;25188;51.958;5.842;2023-05-10T02:42:42;75.40;;;37.30;;
39020;SDS011;25188;51.958;5.842;2023-05-10T02:45:13;71.88;;;37.05;;
39020;SDS011;25188;51.958;5.842;2023-05-10T02:47:42;72.32;;;36.28;;
39020;SDS011;25188;51.958;5.842;2023-05-10T02:50:08;77.68;;;39.58;;
39020;SDS011;25188;51.958;5.842;2023-05-10T02:52:56;68.05;;;37.70;;
39020;SDS011;25188;51.958;5.842;2023-05-10T02:55:25;67.85;;;35.65;;
39020;SDS011;25188;51.958;5.842;2023-05-10T02:57:58;70.70;;;37.33;;
39020;SDS011;25188;51.958;5.842;2023-05-10T03:00:25;73.40;;;38.15;;
39020;SDS011;25188;51.958;5.842;2023-05-10T03:02:51;72.82;;;37.40;;
39020;SDS011;25188;51.958;5.842;2023-05-10T03:05:17;77.25;;;41.45;;
39020;SDS011;25188;51.958;5.842;2023-05-10T03:07:43;71.00;;;40.70;;
39020;SDS011;25188;51.958;5.842;2023-05-10T03:10:09;68.80;;;37.42;;
39020;SDS011;25188;51.958;5.842;2023-05-10T03:18:18;68.50;;;37.25;;
39020;SDS011;25188;51.958;5.842;2023-05-10T03:20:48;65.22;;;36.15;;
39020;SDS011;25188;51.958;5.842;2023-05-10T03:26:09;66.88;;;37.35;;
39020;SDS011;25188;51.958;5.842;2023-05-10T03:28:37;69.45;;;38.17;;
39020;SDS011;25188;51.958;5.842;2023-05-10T03:31:04;71.35;;;37.53;;
39020;SDS011;25188;51.958;5.842;2023-05-10T03:33:31;67.05;;;38.42;;
39020;SDS011;25188;51.958;5.842;2023-05-10T03:35:57;67.40;;;37.72;;
39020;SDS011;25188;51.958;5.842;2023-05-10T03:38:23;68.75;;;37.47;;
39020;SDS011;25188;51.958;5.842;2023-05-10T03:40:48;76.45;;;41.80;;
39020;SDS011;25188;51.958;5.842;2023-05-10T03:43:14;78.30;;;42.00;;
39020;SDS011;25188;51.958;5.842;2023-05-10T03:45:39;76.05;;;42.65;;
39020;SDS011;25188;51.958;5.842;2023-05-10T03:48:05;72.50;;;41.03;;
39020;SDS011;25188;51.958;5.842;2023-05-10T03:50:31;82.03;;;43.67;;
39020;SDS011;25188;51.958;5.842;2023-05-10T03:52:56;70.88;;;40.50;;
39020;SDS011;25188;51.958;5.842;2023-05-10T03:55:22;70.60;;;41.42;;
39020;SDS011;25188;51.958;5.842;2023-05-10T03:57:48;68.95;;;38.53;;
39020;SDS011;25188;51.958;5.842;2023-05-10T04:00:14;67.93;;;37.83;;
39020;SDS011;25188;51.958;5.842;2023-05-10T04:02:40;70.53;;;38.15;;
39020;SDS011;25188;51.958;5.842;2023-05-10T04:05:06;67.10;;;37.85;;
39020;SDS011;25188;51.958;5.842;2023-05-10T04:07:32;67.30;;;37.35;;
39020;SDS011;25188;51.958;5.842;2023-05-10T04:09:57;64.43;;;35.83;;
39020;SDS011;25188;51.958;5.842;2023-05-10T04:12:23;67.38;;;36.05;;
39020;SDS011;25188;51.958;5.842;2023-05-10T04:14:49;61.63;;;35.42;;
39020;SDS011;25188;51.958;5.842;2023-05-10T04:17:15;63.05;;;33.95;;
39020;SDS011;25188;51.958;5.842;2023-05-10T04:19:41;57.80;;;31.95;;
39020;SDS011;25188;51.958;5.842;2023-05-10T04:22:07;54.75;;;31.52;;
39020;SDS011;25188;51.958;5.842;2023-05-10T04:24:32;59.38;;;31.88;;
39020;SDS011;25188;51.958;5.842;2023-05-10T04:26:58;58.30;;;33.45;;
39020;SDS011;25188;51.958;5.842;2023-05-10T04:29:23;64.55;;;32.40;;
39020;SDS011;25188;51.958;5.842;2023-05-10T04:31:49;59.40;;;33.88;;
39020;SDS011;25188;51.958;5.842;2023-05-10T04:34:15;61.55;;;35.45;;
39020;SDS011;25188;51.958;5.842;2023-05-10T04:36:41;65.43;;;35.10;;
39020;SDS011;25188;51.958;5.842;2023-05-10T04:39:07;54.13;;;31.70;;
39020;SDS011;25188;51.958;5.842;2023-05-10T04:41:33;59.60;;;34.67;;
39020;SDS011;25188;51.958;5.842;2023-05-10T04:43:59;68.20;;;34.10;;
39020;SDS011;25188;51.958;5.842;2023-05-10T04:46:25;60.22;;;32.13;;
39020;SDS011;25188;51.958;5.842;2023-05-10T04:48:50;64.45;;;34.42;;
39020;SDS011;25188;51.958;5.842;2023-05-10T04:51:16;64.18;;;35.60;;
39020;SDS011;25188;51.958;5.842;2023-05-10T04:53:41;57.30;;;33.05;;
39020;SDS011;25188;51.958;5.842;2023-05-10T04:56:07;63.70;;;32.17;;
39020;SDS011;25188;51.958;5.842;2023-05-10T04:58:33;59.17;;;32.28;;
39020;SDS011;25188;51.958;5.842;2023-05-10T05:01:08;58.55;;;31.60;;
39020;SDS011;25188;51.958;5.842;2023-05-10T05:03:35;55.35;;;30.80;;
39020;SDS011;25188;51.958;5.842;2023-05-10T05:06:01;60.60;;;30.83;;
39020;SDS011;25188;51.958;5.842;2023-05-10T05:08:27;57.40;;;29.95;;
39020;SDS011;25188;51.958;5.842;2023-05-10T05:10:53;54.33;;;28.70;;
39020;SDS011;25188;51.958;5.842;2023-05-10T05:13:19;59.88;;;30.23;;
39020;SDS011;25188;51.958;5.842;2023-05-10T05:15:45;59.10;;;28.48;;
39020;SDS011;25188;51.958;5.842;2023-05-10T05:18:10;49.80;;;29.42;;
39020;SDS011;25188;51.958;5.842;2023-05-10T05:20:36;64.70;;;31.48;;
39020;SDS011;25188;51.958;5.842;2023-05-10T05:23:01;56.30;;;30.05;;
39020;SDS011;25188;51.958;5.842;2023-05-10T05:25:27;52.50;;;30.60;;
39020;SDS011;25188;51.958;5.842;2023-05-10T05:27:53;53.80;;;29.83;;
39020;SDS011;25188;51.958;5.842;2023-05-10T05:30:18;46.92;;;26.25;;
39020;SDS011;25188;51.958;5.842;2023-05-10T05:32:44;64.55;;;31.88;;
39020;SDS011;25188;51.958;5.842;2023-05-10T05:35:11;52.15;;;29.10;;
39020;SDS011;25188;51.958;5.842;2023-05-10T05:37:37;51.10;;;28.80;;
39020;SDS011;25188;51.958;5.842;2023-05-10T05:40:03;52.28;;;28.73;;
39020;SDS011;25188;51.958;5.842;2023-05-10T05:42:30;62.60;;;31.45;;
39020;SDS011;25188;51.958;5.842;2023-05-10T05:44:56;51.45;;;29.58;;
39020;SDS011;25188;51.958;5.842;2023-05-10T05:47:21;58.38;;;29.88;;
39020;SDS011;25188;51.958;5.842;2023-05-10T05:49:47;57.70;;;30.25;;
39020;SDS011;25188;51.958;5.842;2023-05-10T05:52:13;55.20;;;30.40;;
39020;SDS011;25188;51.958;5.842;2023-05-10T05:54:38;58.95;;;30.95;;
39020;SDS011;25188;51.958;5.842;2023-05-10T05:57:04;53.83;;;28.48;;
39020;SDS011;25188;51.958;5.842;2023-05-10T05:59:30;58.47;;;29.17;;
39020;SDS011;25188;51.958;5.842;2023-05-10T06:01:56;52.17;;;29.42;;
39020;SDS011;25188;51.958;5.842;2023-05-10T06:04:22;51.47;;;27.17;;
39020;SDS011;25188;51.958;5.842;2023-05-10T06:06:47;55.67;;;29.60;;
39020;SDS011;25188;51.958;5.842;2023-05-10T06:09:13;55.25;;;29.42;;
39020;SDS011;25188;51.958;5.842;2023-05-10T06:11:39;51.75;;;28.02;;
39020;SDS011;25188;51.958;5.842;2023-05-10T06:14:04;60.47;;;31.65;;
39020;SDS011;25188;51.958;5.842;2023-05-10T06:16:32;61.25;;;30.00;;
39020;SDS011;25188;51.958;5.842;2023-05-10T06:18:57;53.80;;;28.35;;
39020;SDS011;25188;51.958;5.842;2023-05-10T06:21:23;54.35;;;29.90;;
39020;SDS011;25188;51.958;5.842;2023-05-10T06:23:49;59.10;;;31.08;;
39020;SDS011;25188;51.958;5.842;2023-05-10T06:26:14;54.20;;;30.40;;
39020;SDS011;25188;51.958;5.842;2023-05-10T06:28:40;58.95;;;30.35;;
39020;SDS011;25188;51.958;5.842;2023-05-10T06:31:06;57.72;;;32.13;;
39020;SDS011;25188;51.958;5.842;2023-05-10T06:33:32;56.22;;;30.27;;
39020;SDS011;25188;51.958;5.842;2023-05-10T06:35:58;52.70;;;28.33;;
39020;SDS011;25188;51.958;5.842;2023-05-10T06:38:24;53.30;;;29.75;;
39020;SDS011;25188;51.958;5.842;2023-05-10T06:40:49;56.35;;;31.83;;
39020;SDS011;25188;51.958;5.842;2023-05-10T06:43:15;63.28;;;33.58;;
39020;SDS011;25188;51.958;5.842;2023-05-10T06:45:41;62.67;;;34.58;;
39020;SDS011;25188;51.958;5.842;2023-05-10T06:48:07;63.10;;;33.38;;
39020;SDS011;25188;51.958;5.842;2023-05-10T06:50:33;62.72;;;33.72;;
39020;SDS011;25188;51.958;5.842;2023-05-10T06:52:59;56.40;;;31.73;;
39020;SDS011;25188;51.958;5.842;2023-05-10T06:55:25;72.30;;;35.70;;
39020;SDS011;25188;51.958;5.842;2023-05-10T06:57:51;64.53;;;33.35;;
39020;SDS011;25188;51.958;5.842;2023-05-10T07:00:17;63.70;;;35.25;;
39020;SDS011;25188;51.958;5.842;2023-05-10T07:02:43;61.08;;;35.10;;
39020;SDS011;25188;51.958;5.842;2023-05-10T07:05:09;63.28;;;33.63;;
39020;SDS011;25188;51.958;5.842;2023-05-10T07:07:35;65.07;;;36.00;;
39020;SDS011;25188;51.958;5.842;2023-05-10T07:10:01;61.08;;;36.10;;
39020;SDS011;25188;51.958;5.842;2023-05-10T07:12:26;72.90;;;39.17;;
39020;SDS011;25188;51.958;5.842;2023-05-10T07:14:52;76.47;;;41.65;;
39020;SDS011;25188;51.958;5.842;2023-05-10T07:17:18;80.03;;;41.00;;
39020;SDS011;25188;51.958;5.842;2023-05-10T07:19:43;78.55;;;41.13;;
39020;SDS011;25188;51.958;5.842;2023-05-10T07:22:09;77.13;;;41.97;;
39020;SDS011;25188;51.958;5.842;2023-05-10T07:24:35;69.53;;;36.70;;
39020;SDS011;25188;51.958;5.842;2023-05-10T07:27:00;85.22;;;40.92;;
39020;SDS011;25188;51.958;5.842;2023-05-10T07:29:26;74.20;;;39.78;;
39020;SDS011;25188;51.958;5.842;2023-05-10T07:31:52;66.38;;;36.35;;
39020;SDS011;25188;51.958;5.842;2023-05-10T07:34:18;67.90;;;35.08;;
39020;SDS011;25188;51.958;5.842;2023-05-10T07:36:43;59.45;;;33.03;;
39020;SDS011;25188;51.958;5.842;2023-05-10T07:39:09;58.45;;;32.92;;
39020;SDS011;25188;51.958;5.842;2023-05-10T07:41:35;56.35;;;31.30;;
39020;SDS011;25188;51.958;5.842;2023-05-10T07:44:02;57.13;;;32.75;;
39020;SDS011;25188;51.958;5.842;2023-05-10T07:46:28;55.55;;;30.92;;
39020;SDS011;25188;51.958;5.842;2023-05-10T07:48:54;61.70;;;33.30;;
39020;SDS011;25188;51.958;5.842;2023-05-10T07:51:20;60.15;;;33.13;;
39020;SDS011;25188;51.958;5.842;2023-05-10T07:53:46;55.67;;;30.10;;
39020;SDS011;25188;51.958;5.842;2023-05-10T07:56:21;55.25;;;30.77;;
39020;SDS011;25188;51.958;5.842;2023-05-10T07:58:49;55.30;;;32.15;;
39020;SDS011;25188;51.958;5.842;2023-05-10T08:01:15;56.28;;;30.70;;
39020;SDS011;25188;51.958;5.842;2023-05-10T08:03:41;51.97;;;29.65;;
39020;SDS011;25188;51.958;5.842;2023-05-10T08:06:07;57.15;;;31.83;;
39020;SDS011;25188;51.958;5.842;2023-05-10T08:08:32;55.45;;;30.45;;
39020;SDS011;25188;51.958;5.842;2023-05-10T08:10:58;58.15;;;32.28;;
39020;SDS011;25188;51.958;5.842;2023-05-10T08:13:23;54.88;;;32.53;;
39020;SDS011;25188;51.958;5.842;2023-05-10T08:15:49;47.30;;;28.17;;
39020;SDS011;25188;51.958;5.842;2023-05-10T08:18:17;49.08;;;28.88;;
39020;SDS011;25188;51.958;5.842;2023-05-10T08:20:43;44.47;;;27.52;;
39020;SDS011;25188;51.958;5.842;2023-05-10T08:23:09;39.85;;;24.67;;
39020;SDS011;25188;51.958;5.842;2023-05-10T08:25:35;40.40;;;25.45;;
39020;SDS011;25188;51.958;5.842;2023-05-10T08:28:00;40.53;;;24.73;;
39020;SDS011;25188;51.958;5.842;2023-05-10T08:30:26;44.38;;;26.25;;
39020;SDS011;25188;51.958;5.842;2023-05-10T08:32:51;43.40;;;26.25;;
39020;SDS011;25188;51.958;5.842;2023-05-10T08:35:17;42.90;;;24.20;;
39020;SDS011;25188;51.958;5.842;2023-05-10T08:37:43;37.58;;;23.10;;
39020;SDS011;25188;51.958;5.842;2023-05-10T08:40:08;33.30;;;19.50;;
39020;SDS011;25188;51.958;5.842;2023-05-10T08:42:36;33.58;;;19.30;;
39020;SDS011;25188;51.958;5.842;2023-05-10T08:45:05;28.38;;;16.63;;
39020;SDS011;25188;51.958;5.842;2023-05-10T08:47:33;35.08;;;19.58;;
39020;SDS011;25188;51.958;5.842;2023-05-10T08:50:02;30.38;;;18.75;;
39020;SDS011;25188;51.958;5.842;2023-05-10T08:52:29;30.83;;;17.05;;
39020;SDS011;25188;51.958;5.842;2023-05-10T08:54:57;21.77;;;14.35;;
39020;SDS011;25188;51.958;5.842;2023-05-10T08:57:23;20.10;;;13.48;;
39020;SDS011;25188;51.958;5.842;2023-05-10T08:59:49;20.90;;;12.48;;
39020;SDS011;25188;51.958;5.842;2023-05-10T09:02:15;21.92;;;11.98;;
39020;SDS011;25188;51.958;5.842;2023-05-10T09:04:43;16.92;;;10.40;;
39020;SDS011;25188;51.958;5.842;2023-05-10T09:07:09;19.67;;;9.80;;
39020;SDS011;25188;51.958;5.842;2023-05-10T09:09:35;14.20;;;8.35;;
39020;SDS011;25188;51.958;5.842;2023-05-10T09:12:02;13.38;;;8.25;;
39020;SDS011;25188;51.958;5.842;2023-05-10T09:14:28;14.98;;;8.65;;
39020;SDS011;25188;51.958;5.842;2023-05-10T09:16:55;12.65;;;7.72;;
39020;SDS011;25188;51.958;5.842;2023-05-10T09:19:21;13.05;;;8.00;;
39020;SDS011;25188;51.958;5.842;2023-05-10T09:21:47;12.48;;;6.93;;
39020;SDS011;25188;51.958;5.842;2023-05-10T09:24:14;11.48;;;6.90;;
39020;SDS011;25188;51.958;5.842;2023-05-10T09:26:47;10.43;;;6.15;;
39020;SDS011;25188;51.958;5.842;2023-05-10T09:29:13;15.95;;;6.53;;
39020;SDS011;25188;51.958;5.842;2023-05-10T09:31:43;11.23;;;6.22;;
39020;SDS011;25188;51.958;5.842;2023-05-10T09:34:34;11.38;;;6.78;;
39020;SDS011;25188;51.958;5.842;2023-05-10T09:37:01;10.90;;;5.75;;
39020;SDS011;25188;51.958;5.842;2023-05-10T09:39:34;10.82;;;5.75;;
39020;SDS011;25188;51.958;5.842;2023-05-10T09:42:01;11.57;;;6.53;;
39020;SDS011;25188;51.958;5.842;2023-05-10T09:44:29;12.82;;;6.43;;
39020;SDS011;25188;51.958;5.842;2023-05-10T09:46:55;11.45;;;6.55;;
39020;SDS011;25188;51.958;5.842;2023-05-10T09:49:21;11.82;;;6.90;;
39020;SDS011;25188;51.958;5.842;2023-05-10T09:51:47;12.70;;;7.97;;
39020;SDS011;25188;51.958;5.842;2023-05-10T09:54:24;11.73;;;7.20;;
39020;SDS011;25188;51.958;5.842;2023-05-10T09:56:50;12.38;;;6.07;;
39020;SDS011;25188;51.958;5.842;2023-05-10T09:59:15;12.82;;;6.30;;
39020;SDS011;25188;51.958;5.842;2023-05-10T10:01:42;9.30;;;5.30;;
39020;SDS011;25188;51.958;5.842;2023-05-10T10:04:14;10.35;;;5.70;;
39020;SDS011;25188;51.958;5.842;2023-05-10T10:06:40;11.05;;;5.82;;
39020;SDS011;25188;51.958;5.842;2023-05-10T10:09:06;10.13;;;5.18;;
39020;SDS011;25188;51.958;5.842;2023-05-10T10:11:36;11.65;;;6.28;;
39020;SDS011;25188;51.958;5.842;2023-05-10T10:14:02;10.68;;;5.60;;
39020;SDS011;25188;51.958;5.842;2023-05-10T10:16:29;8.57;;;5.30;;
39020;SDS011;25188;51.958;5.842;2023-05-10T10:18:55;10.52;;;5.43;;
39020;SDS011;25188;51.958;5.842;2023-05-10T10:21:22;12.80;;;6.22;;
39020;SDS011;25188;51.958;5.842;2023-05-10T10:23:48;11.35;;;6.18;;
39020;SDS011;25188;51.958;5.842;2023-05-10T10:26:15;12.23;;;6.78;;
39020;SDS011;25188;51.958;5.842;2023-05-10T10:31:37;12.90;;;6.60;;
39020;SDS011;25188;51.958;5.842;2023-05-10T10:34:33;13.50;;;8.25;;
39020;SDS011;25188;51.958;5.842;2023-05-10T10:37:03;14.48;;;8.25;;
39020;SDS011;25188;51.958;5.842;2023-05-10T10:39:30;12.52;;;7.82;;
39020;SDS011;25188;51.958;5.842;2023-05-10T10:41:56;13.32;;;7.47;;
39020;SDS011;25188;51.958;5.842;2023-05-10T10:44:41;12.07;;;7.05;;
39020;SDS011;25188;51.958;5.842;2023-05-10T10:52:31;15.15;;;7.82;;
39020;SDS011;25188;51.958;5.842;2023-05-10T11:02:51;11.45;;;6.65;;
39020;SDS011;25188;51.958;5.842;2023-05-10T11:10:22;13.43;;;7.97;;
39020;SDS011;25188;51.958;5.842;2023-05-10T11:15:18;11.25;;;7.53;;
39020;SDS011;25188;51.958;5.842;2023-05-10T11:17:45;14.65;;;7.78;;
39020;SDS011;25188;51.958;5.842;2023-05-10T11:20:16;10.25;;;6.60;;
39020;SDS011;25188;51.958;5.842;2023-05-10T11:22:54;14.05;;;7.20;;
39020;SDS011;25188;51.958;5.842;2023-05-10T11:25:23;10.50;;;6.80;;
39020;SDS011;25188;51.958;5.842;2023-05-10T11:27:51;10.55;;;5.95;;
39020;SDS011;25188;51.958;5.842;2023-05-10T11:30:17;10.18;;;6.38;;
39020;SDS011;25188;51.958;5.842;2023-05-10T11:32:43;13.18;;;6.90;;
39020;SDS011;25188;51.958;5.842;2023-05-10T11:35:10;12.40;;;7.15;;
39020;SDS011;25188;51.958;5.842;2023-05-10T11:37:37;11.05;;;6.65;;
39020;SDS011;25188;51.958;5.842;2023-05-10T11:40:08;12.73;;;7.03;;
39020;SDS011;25188;51.958;5.842;2023-05-10T11:42:38;13.27;;;7.25;;
39020;SDS011;25188;51.958;5.842;2023-05-10T11:45:05;11.73;;;6.57;;
39020;SDS011;25188;51.958;5.842;2023-05-10T11:47:31;9.82;;;6.30;;
39020;SDS011;25188;51.958;5.842;2023-05-10T11:49:57;12.40;;;7.35;;
39020;SDS011;25188;51.958;5.842;2023-05-10T11:52:23;10.20;;;6.38;;
39020;SDS011;25188;51.958;5.842;2023-05-10T11:54:52;10.00;;;6.00;;
39020;SDS011;25188;51.958;5.842;2023-05-10T11:57:19;9.15;;;5.40;;
39020;SDS011;25188;51.958;5.842;2023-05-10T11:59:46;9.13;;;5.20;;
39020;SDS011;25188;51.958;5.842;2023-05-10T12:02:14;8.70;;;5.43;;
39020;SDS011;25188;51.958;5.842;2023-05-10T12:04:40;10.60;;;7.00;;
39020;SDS011;25188;51.958;5.842;2023-05-10T12:07:06;8.73;;;5.43;;
39020;SDS011;25188;51.958;5.842;2023-05-10T12:09:32;8.52;;;5.05;;
39020;SDS011;25188;51.958;5.842;2023-05-10T12:11:58;6.53;;;4.30;;
39020;SDS011;25188;51.958;5.842;2023-05-10T12:14:23;9.77;;;4.97;;
39020;SDS011;25188;51.958;5.842;2023-05-10T12:16:49;7.88;;;4.32;;
39020;SDS011;25188;51.958;5.842;2023-05-10T12:19:18;9.10;;;4.47;;
39020;SDS011;25188;51.958;5.842;2023-05-10T12:21:45;9.30;;;4.80;;
39020;SDS011;25188;51.958;5.842;2023-05-10T12:24:11;7.50;;;4.53;;
39020;SDS011;25188;51.958;5.842;2023-05-10T12:26:41;7.32;;;4.22;;
39020;SDS011;25188;51.958;5.842;2023-05-10T12:29:19;8.07;;;4.28;;
39020;SDS011;25188;51.958;5.842;2023-05-10T12:31:55;6.25;;;3.67;;
39020;SDS011;25188;51.958;5.842;2023-05-10T12:34:26;6.22;;;4.25;;
39020;SDS011;25188;51.958;5.842;2023-05-10T12:36:55;6.90;;;4.47;;
39020;SDS011;25188;51.958;5.842;2023-05-10T12:39:21;8.60;;;4.72;;
39020;SDS011;25188;51.958;5.842;2023-05-10T12:41:47;7.65;;;4.50;;
39020;SDS011;25188;51.958;5.842;2023-05-10T12:44:12;6.25;;;3.95;;
39020;SDS011;25188;51.958;5.842;2023-05-10T12:46:38;7.38;;;3.90;;
39020;SDS011;25188;51.958;5.842;2023-05-10T12:49:04;5.63;;;3.20;;
39020;SDS011;25188;51.958;5.842;2023-05-10T12:51:29;9.10;;;4.10;;
39020;SDS011;25188;51.958;5.842;2023-05-10T12:53:56;6.40;;;4.00;;
39020;SDS011;25188;51.958;5.842;2023-05-10T12:56:21;6.90;;;3.78;;
39020;SDS011;25188;51.958;5.842;2023-05-10T12:58:47;7.40;;;3.80;;
39020;SDS011;25188;51.958;5.842;2023-05-10T13:01:15;8.65;;;4.35;;
39020;SDS011;25188;51.958;5.842;2023-05-10T13:03:41;5.43;;;3.65;;
39020;SDS011;25188;51.958;5.842;2023-05-10T13:06:08;7.80;;;2.78;;
39020;SDS011;25188;51.958;5.842;2023-05-10T13:08:33;6.63;;;3.75;;
39020;SDS011;25188;51.958;5.842;2023-05-10T13:10:59;6.90;;;4.22;;
39020;SDS011;25188;51.958;5.842;2023-05-10T13:13:25;6.25;;;3.20;;
39020;SDS011;25188;51.958;5.842;2023-05-10T13:15:51;5.63;;;3.05;;
39020;SDS011;25188;51.958;5.842;2023-05-10T13:18:17;5.57;;;3.17;;
39020;SDS011;25188;51.958;5.842;2023-05-10T13:20:42;4.35;;;2.50;;
39020;SDS011;25188;51.958;5.842;2023-05-10T13:23:09;5.47;;;2.83;;
39020;SDS011;25188;51.958;5.842;2023-05-10T13:25:35;6.22;;;3.38;;
39020;SDS011;25188;51.958;5.842;2023-05-10T13:28:01;6.15;;;3.30;;
39020;SDS011;25188;51.958;5.842;2023-05-10T13:30:26;7.65;;;3.90;;
39020;SDS011;25188;51.958;5.842;2023-05-10T13:32:53;7.20;;;4.40;;
39020;SDS011;25188;51.958;5.842;2023-05-10T13:35:19;9.50;;;5.93;;
39020;SDS011;25188;51.958;5.842;2023-05-10T13:37:45;10.25;;;5.32;;
39020;SDS011;25188;51.958;5.842;2023-05-10T13:40:11;7.15;;;4.93;;
39020;SDS011;25188;51.958;5.842;2023-05-10T13:42:40;7.95;;;5.20;;
39020;SDS011;25188;51.958;5.842;2023-05-10T13:45:06;8.93;;;6.75;;
39020;SDS011;25188;51.958;5.842;2023-05-10T13:47:32;11.82;;;7.43;;
39020;SDS011;25188;51.958;5.842;2023-05-10T13:49:57;11.80;;;8.15;;
39020;SDS011;25188;51.958;5.842;2023-05-10T13:52:23;10.38;;;7.10;;
39020;SDS011;25188;51.958;5.842;2023-05-10T13:54:49;9.55;;;6.57;;
39020;SDS011;25188;51.958;5.842;2023-05-10T13:57:16;10.63;;;7.97;;
39020;SDS011;25188;51.958;5.842;2023-05-10T13:59:42;11.13;;;8.10;;
39020;SDS011;25188;51.958;5.842;2023-05-10T14:02:08;11.65;;;8.10;;
39020;SDS011;25188;51.958;5.842;2023-05-10T14:04:33;11.35;;;8.20;;
39020;SDS011;25188;51.958;5.842;2023-05-10T14:07:00;11.82;;;9.30;;
39020;SDS011;25188;51.958;5.842;2023-05-10T14:09:26;14.10;;;9.40;;
39020;SDS011;25188;51.958;5.842;2023-05-10T14:11:51;11.27;;;9.15;;
39020;SDS011;25188;51.958;5.842;2023-05-10T14:14:17;12.27;;;9.50;;
39020;SDS011;25188;51.958;5.842;2023-05-10T14:16:43;10.23;;;8.55;;
39020;SDS011;25188;51.958;5.842;2023-05-10T14:19:09;11.43;;;8.20;;
39020;SDS011;25188;51.958;5.842;2023-05-10T14:21:36;10.48;;;8.70;;
39020;SDS011;25188;51.958;5.842;2023-05-10T14:24:02;12.32;;;8.48;;
39020;SDS011;25188;51.958;5.842;2023-05-10T14:26:28;13.30;;;8.80;;
39020;SDS011;25188;51.958;5.842;2023-05-10T14:28:53;9.75;;;7.35;;
39020;SDS011;25188;51.958;5.842;2023-05-10T14:31:19;9.80;;;7.75;;
39020;SDS011;25188;51.958;5.842;2023-05-10T14:33:49;7.88;;;5.88;;
39020;SDS011;25188;51.958;5.842;2023-05-10T14:36:15;8.00;;;4.38;;
39020;SDS011;25188;51.958;5.842;2023-05-10T14:38:40;6.53;;;3.95;;
39020;SDS011;25188;51.958;5.842;2023-05-10T14:41:06;5.70;;;3.85;;
39020;SDS011;25188;51.958;5.842;2023-05-10T14:43:32;5.88;;;3.78;;
39020;SDS011;25188;51.958;5.842;2023-05-10T14:45:57;7.45;;;4.22;;
39020;SDS011;25188;51.958;5.842;2023-05-10T14:48:23;4.93;;;3.17;;
39020;SDS011;25188;51.958;5.842;2023-05-10T14:50:49;4.72;;;2.53;;
39020;SDS011;25188;51.958;5.842;2023-05-10T14:53:15;5.95;;;3.15;;
39020;SDS011;25188;51.958;5.842;2023-05-10T14:55:41;5.35;;;2.75;;
39020;SDS011;25188;51.958;5.842;2023-05-10T14:58:06;4.30;;;2.75;;
39020;SDS011;25188;51.958;5.842;2023-05-10T15:00:32;4.07;;;1.92;;
39020;SDS011;25188;51.958;5.842;2023-05-10T15:02:58;5.85;;;2.80;;
39020;SDS011;25188;51.958;5.842;2023-05-10T15:05:23;4.18;;;1.73;;
39020;SDS011;25188;51.958;5.842;2023-05-10T15:07:49;6.28;;;1.98;;
39020;SDS011;25188;51.958;5.842;2023-05-10T15:10:15;3.67;;;1.77;;
39020;SDS011;25188;51.958;5.842;2023-05-10T15:12:41;5.05;;;1.80;;